Canyon Creek, MT (59633)

9:03 PM MDT on September 01, 2014 (GMT -0600)
Flesher Pass | Change Station
CLOSE
Current Station
Personal Weather Station
Location: Montana, MT
Elevation: 5364 ft
Nearby Weather Stations

Elev 5364 ft 46.96 °N, 112.35 °W | Updated 0 second ago

Clear
Clear
52.2 °F
Feels Like 52.2 °F
N
0.0
Wind Variable Wind from SSW

Today
High -- | Low -- °F
--% Chance of Precip.
Yesterday
High -- | Low -- °F
Precip. -- in
6:48 AM 8:08 PM
Waxing Crescent, 47% visible
Pressure 29.94 in
Visibility 10.0 miles
Clouds Clear
Dew Point 37 °F
Humidity 56%
Rainfall 0.00 in
Snow Depth 0 in
UV 0 out of 12
Pollen 6.70 out of 12
Air Quality Not available.
Flu Activity Not available.
METAR KHLN 020253Z 00000KT 10SM CLR 18/02 A2995 RMK AO2 SLP136 T01780022 51002

More Conditions Fewer Conditions

Pressure 29.94 in
Visibility 10.0 miles
Clouds Clear
Dew Point 37 °F
Humidity 56%
Rainfall 0.00 in
Snow Depth 0 in
UV 0 out of 12
Pollen 6.70 out of 12
Air Quality Not available.
Flu Activity Not available.
METAR KHLN 020253Z 00000KT 10SM CLR 18/02 A2995 RMK AO2 SLP136 T01780022 51002

More Conditions Fewer Conditions

10-Day Weather Forecast

Almanac

Astronomy

Sep. 01, 2014 Rise Set
Actual Time 6:48 AM MDT 8:08 PM MDT
Civil Twilight 6:17 AM MDT 8:39 PM MDT
Nautical Twilight 5:39 AM MDT 9:17 PM MDT
Astronomical Twilight 4:58 AM MDT 9:58 PM MDT
Moon 2:03 PM MDT (9/1) 11:46 PM MDT (9/1)
Length of Visible Light 14h 22m
Length of Day
13h 19m
Tomorrow will be 3m 13s shorter.
Waxing Crescent, 47% of the Moon is Illuminated
Today
Waxing Crescent
Sep 2
First Quarter
Sep 8
Full
Sep 15
Last Quarter
Sep 24
New

Today's Extremes

State Highs State Lows

Community

WunderPhotos

Upload Photos

1,749,537 photos uploaded!

WunderBlogs® & News

Nearby

Snow Depth

Station Depth Elevation
Nevada Ridge 0 in 7020 ft
Tizer Basin 1 in 6840 ft
Lubrecht Flume 0 in 4680 ft
Wood Creek 0 in 5960 ft
Boulder Mountain 0 in 7950 ft

Earthquake Activity

City Distance Mag. Time & Date
No recent earthquake activity has been reported nearby.
Minimum magnitude displayed is 2.5.

Coastal Water Temperatures

Place Temperature
No Stations Reporting

Nearby Weather Stations